sensor_id;sensor_type;location;lat;lon;timestamp;temperature;humidity
25732;DHT22;13585;50.864;4.406;2023-04-25T00:02:25;19.10;65.30
25732;DHT22;13585;50.864;4.406;2023-04-25T00:04:51;19.10;65.20
25732;DHT22;13585;50.864;4.406;2023-04-25T00:07:17;19.10;65.20
25732;DHT22;13585;50.864;4.406;2023-04-25T00:09:43;19.10;65.10
25732;DHT22;13585;50.864;4.406;2023-04-25T00:12:08;19.10;65.00
25732;DHT22;13585;50.864;4.406;2023-04-25T00:14:34;19.10;65.00
25732;DHT22;13585;50.864;4.406;2023-04-25T00:17:00;19.10;65.00
25732;DHT22;13585;50.864;4.406;2023-04-25T00:19:26;19.10;65.00
25732;DHT22;13585;50.864;4.406;2023-04-25T00:21:54;19.10;64.90
25732;DHT22;13585;50.864;4.406;2023-04-25T00:24:20;19.10;64.80
25732;DHT22;13585;50.864;4.406;2023-04-25T00:26:45;19.10;64.80
25732;DHT22;13585;50.864;4.406;2023-04-25T00:29:11;19.10;64.80
25732;DHT22;13585;50.864;4.406;2023-04-25T00:31:37;19.10;64.80
25732;DHT22;13585;50.864;4.406;2023-04-25T00:34:02;19.10;64.70
25732;DHT22;13585;50.864;4.406;2023-04-25T00:36:28;19.10;64.60
25732;DHT22;13585;50.864;4.406;2023-04-25T00:38:54;19.10;64.50
25732;DHT22;13585;50.864;4.406;2023-04-25T00:41:23;19.10;64.50
25732;DHT22;13585;50.864;4.406;2023-04-25T00:43:51;19.10;64.50
25732;DHT22;13585;50.864;4.406;2023-04-25T00:46:17;19.10;64.40
25732;DHT22;13585;50.864;4.406;2023-04-25T00:48:42;19.10;64.40
25732;DHT22;13585;50.864;4.406;2023-04-25T00:51:09;19.10;64.30
25732;DHT22;13585;50.864;4.406;2023-04-25T00:53:38;19.10;64.30
25732;DHT22;13585;50.864;4.406;2023-04-25T00:56:05;19.10;64.30
25732;DHT22;13585;50.864;4.406;2023-04-25T00:58:31;19.00;64.20
25732;DHT22;13585;50.864;4.406;2023-04-25T01:00:57;19.10;64.20
25732;DHT22;13585;50.864;4.406;2023-04-25T01:03:23;19.10;64.10
25732;DHT22;13585;50.864;4.406;2023-04-25T01:05:50;19.00;64.00
25732;DHT22;13585;50.864;4.406;2023-04-25T01:08:16;19.10;64.10
25732;DHT22;13585;50.864;4.406;2023-04-25T01:10:41;19.00;64.00
25732;DHT22;13585;50.864;4.406;2023-04-25T01:13:07;19.10;63.90
25732;DHT22;13585;50.864;4.406;2023-04-25T01:15:33;19.10;64.00
25732;DHT22;13585;50.864;4.406;2023-04-25T01:18:00;19.10;63.90
25732;DHT22;13585;50.864;4.406;2023-04-25T01:20:27;19.00;63.70
25732;DHT22;13585;50.864;4.406;2023-04-25T01:22:54;19.00;63.70
25732;DHT22;13585;50.864;4.406;2023-04-25T01:25:21;19.00;63.70
25732;DHT22;13585;50.864;4.406;2023-04-25T01:27:47;19.10;64.50
25732;DHT22;13585;50.864;4.406;2023-04-25T01:30:13;19.00;63.60
25732;DHT22;13585;50.864;4.406;2023-04-25T01:32:40;19.00;63.50
25732;DHT22;13585;50.864;4.406;2023-04-25T01:35:09;19.00;63.50
25732;DHT22;13585;50.864;4.406;2023-04-25T01:37:45;19.00;63.50
25732;DHT22;13585;50.864;4.406;2023-04-25T01:40:11;19.00;63.50
25732;DHT22;13585;50.864;4.406;2023-04-25T01:42:40;19.00;63.40
25732;DHT22;13585;50.864;4.406;2023-04-25T01:45:07;19.00;63.40
25732;DHT22;13585;50.864;4.406;2023-04-25T01:47:33;19.00;63.30
25732;DHT22;13585;50.864;4.406;2023-04-25T01:50:01;19.00;63.30
25732;DHT22;13585;50.864;4.406;2023-04-25T01:52:27;19.00;63.20
25732;DHT22;13585;50.864;4.406;2023-04-25T01:54:53;19.00;63.20
25732;DHT22;13585;50.864;4.406;2023-04-25T01:57:19;19.00;63.20
25732;DHT22;13585;50.864;4.406;2023-04-25T01:59:45;19.00;63.10
25732;DHT22;13585;50.864;4.406;2023-04-25T02:02:11;19.00;63.00
25732;DHT22;13585;50.864;4.406;2023-04-25T02:04:37;19.00;63.00
25732;DHT22;13585;50.864;4.406;2023-04-25T02:07:03;19.00;63.00
25732;DHT22;13585;50.864;4.406;2023-04-25T02:09:29;19.00;63.00
25732;DHT22;13585;50.864;4.406;2023-04-25T02:11:54;19.00;63.00
25732;DHT22;13585;50.864;4.406;2023-04-25T02:14:20;19.00;63.00
25732;DHT22;13585;50.864;4.406;2023-04-25T02:16:47;19.00;63.00
25732;DHT22;13585;50.864;4.406;2023-04-25T02:19:12;19.00;63.00
25732;DHT22;13585;50.864;4.406;2023-04-25T02:21:38;19.00;63.00
25732;DHT22;13585;50.864;4.406;2023-04-25T02:24:04;19.00;63.00
25732;DHT22;13585;50.864;4.406;2023-04-25T02:26:30;19.00;62.90
25732;DHT22;13585;50.864;4.406;2023-04-25T02:28:56;19.00;62.90
25732;DHT22;13585;50.864;4.406;2023-04-25T02:31:22;19.00;62.80
25732;DHT22;13585;50.864;4.406;2023-04-25T02:33:48;19.00;62.80
25732;DHT22;13585;50.864;4.406;2023-04-25T02:36:13;19.00;62.80
25732;DHT22;13585;50.864;4.406;2023-04-25T02:38:40;19.00;62.80
25732;DHT22;13585;50.864;4.406;2023-04-25T02:41:05;18.90;62.70
25732;DHT22;13585;50.864;4.406;2023-04-25T02:43:31;19.00;62.70
25732;DHT22;13585;50.864;4.406;2023-04-25T02:45:57;19.00;62.70
25732;DHT22;13585;50.864;4.406;2023-04-25T02:48:22;19.00;62.70
25732;DHT22;13585;50.864;4.406;2023-04-25T02:50:48;19.00;62.60
25732;DHT22;13585;50.864;4.406;2023-04-25T02:53:13;18.90;62.50
25732;DHT22;13585;50.864;4.406;2023-04-25T02:55:39;19.00;62.50
25732;DHT22;13585;50.864;4.406;2023-04-25T02:58:05;19.00;62.50
25732;DHT22;13585;50.864;4.406;2023-04-25T03:00:30;19.00;62.50
25732;DHT22;13585;50.864;4.406;2023-04-25T03:02:56;18.90;62.40
25732;DHT22;13585;50.864;4.406;2023-04-25T03:05:22;18.90;62.50
25732;DHT22;13585;50.864;4.406;2023-04-25T03:07:47;18.90;62.40
25732;DHT22;13585;50.864;4.406;2023-04-25T03:10:13;18.90;62.40
25732;DHT22;13585;50.864;4.406;2023-04-25T03:12:38;18.90;62.40
25732;DHT22;13585;50.864;4.406;2023-04-25T03:15:05;18.90;62.40
25732;DHT22;13585;50.864;4.406;2023-04-25T03:17:31;19.00;62.40
25732;DHT22;13585;50.864;4.406;2023-04-25T03:19:57;18.90;62.40
25732;DHT22;13585;50.864;4.406;2023-04-25T03:22:23;18.90;62.30
25732;DHT22;13585;50.864;4.406;2023-04-25T03:24:49;18.90;62.30
25732;DHT22;13585;50.864;4.406;2023-04-25T03:27:14;18.90;62.20
25732;DHT22;13585;50.864;4.406;2023-04-25T03:29:40;18.90;62.20
25732;DHT22;13585;50.864;4.406;2023-04-25T03:32:06;18.90;62.20
25732;DHT22;13585;50.864;4.406;2023-04-25T03:34:32;18.90;62.20
25732;DHT22;13585;50.864;4.406;2023-04-25T03:36:57;18.90;62.20
25732;DHT22;13585;50.864;4.406;2023-04-25T03:39:23;18.90;62.20
25732;DHT22;13585;50.864;4.406;2023-04-25T03:41:48;18.90;62.20
25732;DHT22;13585;50.864;4.406;2023-04-25T03:44:14;18.90;62.10
25732;DHT22;13585;50.864;4.406;2023-04-25T03:46:40;18.90;62.10
25732;DHT22;13585;50.864;4.406;2023-04-25T03:49:05;18.90;62.00
25732;DHT22;13585;50.864;4.406;2023-04-25T03:51:31;18.90;62.00
25732;DHT22;13585;50.864;4.406;2023-04-25T03:53:57;18.90;62.00
25732;DHT22;13585;50.864;4.406;2023-04-25T03:56:22;18.90;62.00
25732;DHT22;13585;50.864;4.406;2023-04-25T03:58:48;18.90;62.00
25732;DHT22;13585;50.864;4.406;2023-04-25T04:01:14;18.90;62.00
25732;DHT22;13585;50.864;4.406;2023-04-25T04:03:39;18.90;62.00
25732;DHT22;13585;50.864;4.406;2023-04-25T04:06:06;18.90;61.90
25732;DHT22;13585;50.864;4.406;2023-04-25T04:08:33;18.90;61.90
25732;DHT22;13585;50.864;4.406;2023-04-25T04:10:59;18.90;61.90
25732;DHT22;13585;50.864;4.406;2023-04-25T04:13:28;18.90;61.80
25732;DHT22;13585;50.864;4.406;2023-04-25T04:15:54;18.90;61.80
25732;DHT22;13585;50.864;4.406;2023-04-25T04:18:21;18.90;61.80
25732;DHT22;13585;50.864;4.406;2023-04-25T04:20:46;18.80;61.70
25732;DHT22;13585;50.864;4.406;2023-04-25T04:23:12;18.90;61.70
25732;DHT22;13585;50.864;4.406;2023-04-25T04:25:38;18.90;62.50
25732;DHT22;13585;50.864;4.406;2023-04-25T04:28:05;18.80;61.60
25732;DHT22;13585;50.864;4.406;2023-04-25T04:30:31;18.80;61.60
25732;DHT22;13585;50.864;4.406;2023-04-25T04:32:58;18.80;61.50
25732;DHT22;13585;50.864;4.406;2023-04-25T04:35:26;18.90;61.70
25732;DHT22;13585;50.864;4.406;2023-04-25T04:37:52;18.80;61.50
25732;DHT22;13585;50.864;4.406;2023-04-25T04:40:18;18.80;61.40
25732;DHT22;13585;50.864;4.406;2023-04-25T04:42:44;18.80;61.40
25732;DHT22;13585;50.864;4.406;2023-04-25T04:45:18;18.80;61.40
25732;DHT22;13585;50.864;4.406;2023-04-25T04:47:44;18.80;61.40
25732;DHT22;13585;50.864;4.406;2023-04-25T04:50:11;18.80;61.30
25732;DHT22;13585;50.864;4.406;2023-04-25T04:52:37;18.80;61.30
25732;DHT22;13585;50.864;4.406;2023-04-25T04:55:04;18.80;61.30
25732;DHT22;13585;50.864;4.406;2023-04-25T04:57:30;18.80;61.30
25732;DHT22;13585;50.864;4.406;2023-04-25T04:59:56;18.80;61.20
25732;DHT22;13585;50.864;4.406;2023-04-25T05:02:22;18.80;61.20
25732;DHT22;13585;50.864;4.406;2023-04-25T05:04:48;18.80;61.20
25732;DHT22;13585;50.864;4.406;2023-04-25T05:07:13;18.80;61.20
25732;DHT22;13585;50.864;4.406;2023-04-25T05:09:39;18.80;61.20
25732;DHT22;13585;50.864;4.406;2023-04-25T05:12:05;18.80;61.10
25732;DHT22;13585;50.864;4.406;2023-04-25T05:14:30;18.80;61.20
25732;DHT22;13585;50.864;4.406;2023-04-25T05:16:56;18.80;61.20
25732;DHT22;13585;50.864;4.406;2023-04-25T05:19:22;18.80;61.20
25732;DHT22;13585;50.864;4.406;2023-04-25T05:21:48;18.80;61.30
25732;DHT22;13585;50.864;4.406;2023-04-25T05:24:14;18.80;61.50
25732;DHT22;13585;50.864;4.406;2023-04-25T05:26:40;18.80;61.70
25732;DHT22;13585;50.864;4.406;2023-04-25T05:29:11;18.80;61.80
25732;DHT22;13585;50.864;4.406;2023-04-25T05:31:38;18.80;61.90
25732;DHT22;13585;50.864;4.406;2023-04-25T05:34:03;18.80;62.00
25732;DHT22;13585;50.864;4.406;2023-04-25T05:36:29;18.80;62.20
25732;DHT22;13585;50.864;4.406;2023-04-25T05:38:56;18.90;62.40
25732;DHT22;13585;50.864;4.406;2023-04-25T05:41:21;18.80;62.40
25732;DHT22;13585;50.864;4.406;2023-04-25T05:43:47;18.80;62.40
25732;DHT22;13585;50.864;4.406;2023-04-25T05:46:15;18.80;62.50
25732;DHT22;13585;50.864;4.406;2023-04-25T05:48:42;18.80;62.60
25732;DHT22;13585;50.864;4.406;2023-04-25T05:51:08;18.80;62.60
25732;DHT22;13585;50.864;4.406;2023-04-25T05:53:34;18.80;62.70
25732;DHT22;13585;50.864;4.406;2023-04-25T05:56:00;18.80;62.70
25732;DHT22;13585;50.864;4.406;2023-04-25T05:58:26;18.80;62.70
25732;DHT22;13585;50.864;4.406;2023-04-25T06:00:52;18.80;62.70
25732;DHT22;13585;50.864;4.406;2023-04-25T06:03:17;18.80;62.70
25732;DHT22;13585;50.864;4.406;2023-04-25T06:05:43;18.80;62.70
25732;DHT22;13585;50.864;4.406;2023-04-25T06:08:09;18.90;62.90
25732;DHT22;13585;50.864;4.406;2023-04-25T06:10:36;18.80;62.80
25732;DHT22;13585;50.864;4.406;2023-04-25T06:13:02;18.80;62.90
25732;DHT22;13585;50.864;4.406;2023-04-25T06:15:28;18.80;62.80
25732;DHT22;13585;50.864;4.406;2023-04-25T06:17:54;18.80;62.80
25732;DHT22;13585;50.864;4.406;2023-04-25T06:20:20;18.90;62.90
25732;DHT22;13585;50.864;4.406;2023-04-25T06:22:48;18.90;62.90
25732;DHT22;13585;50.864;4.406;2023-04-25T06:25:14;18.90;62.90
25732;DHT22;13585;50.864;4.406;2023-04-25T06:27:40;18.90;62.90
25732;DHT22;13585;50.864;4.406;2023-04-25T06:30:06;18.90;62.90
25732;DHT22;13585;50.864;4.406;2023-04-25T06:32:32;18.90;62.90
25732;DHT22;13585;50.864;4.406;2023-04-25T06:34:59;18.90;62.80
25732;DHT22;13585;50.864;4.406;2023-04-25T06:37:25;18.90;62.90
25732;DHT22;13585;50.864;4.406;2023-04-25T06:39:51;18.90;62.90
25732;DHT22;13585;50.864;4.406;2023-04-25T06:42:19;18.90;62.80
25732;DHT22;13585;50.864;4.406;2023-04-25T06:44:44;18.90;62.80
25732;DHT22;13585;50.864;4.406;2023-04-25T06:47:10;18.90;62.70
25732;DHT22;13585;50.864;4.406;2023-04-25T06:49:36;18.90;62.70
25732;DHT22;13585;50.864;4.406;2023-04-25T06:52:02;18.90;62.70
25732;DHT22;13585;50.864;4.406;2023-04-25T06:54:28;18.70;62.50
25732;DHT22;13585;50.864;4.406;2023-04-25T06:56:55;18.90;62.70
25732;DHT22;13585;50.864;4.406;2023-04-25T06:59:21;18.90;62.70
25732;DHT22;13585;50.864;4.406;2023-04-25T07:01:47;18.80;62.60
25732;DHT22;13585;50.864;4.406;2023-04-25T07:04:12;18.90;62.60
25732;DHT22;13585;50.864;4.406;2023-04-25T07:06:38;18.90;62.70
25732;DHT22;13585;50.864;4.406;2023-04-25T07:09:08;18.90;62.60
25732;DHT22;13585;50.864;4.406;2023-04-25T07:11:35;18.90;62.60
25732;DHT22;13585;50.864;4.406;2023-04-25T07:14:01;18.90;62.60
25732;DHT22;13585;50.864;4.406;2023-04-25T07:16:27;18.90;62.60
25732;DHT22;13585;50.864;4.406;2023-04-25T07:18:53;18.90;62.50
25732;DHT22;13585;50.864;4.406;2023-04-25T07:21:19;18.80;62.40
25732;DHT22;13585;50.864;4.406;2023-04-25T07:23:44;18.90;62.50
25732;DHT22;13585;50.864;4.406;2023-04-25T07:26:10;18.90;62.40
25732;DHT22;13585;50.864;4.406;2023-04-25T07:28:36;18.90;62.40
25732;DHT22;13585;50.864;4.406;2023-04-25T07:31:01;18.90;62.40
25732;DHT22;13585;50.864;4.406;2023-04-25T07:33:28;18.90;62.40
25732;DHT22;13585;50.864;4.406;2023-04-25T07:35:53;18.80;62.30
25732;DHT22;13585;50.864;4.406;2023-04-25T07:38:20;18.80;62.30
25732;DHT22;13585;50.864;4.406;2023-04-25T07:40:48;18.90;62.40
25732;DHT22;13585;50.864;4.406;2023-04-25T07:43:13;18.90;62.30
25732;DHT22;13585;50.864;4.406;2023-04-25T07:45:42;18.80;62.20
25732;DHT22;13585;50.864;4.406;2023-04-25T07:48:08;18.90;62.20
25732;DHT22;13585;50.864;4.406;2023-04-25T07:50:33;18.90;62.20
25732;DHT22;13585;50.864;4.406;2023-04-25T07:52:59;18.90;62.20
25732;DHT22;13585;50.864;4.406;2023-04-25T07:55:24;18.80;62.10
25732;DHT22;13585;50.864;4.406;2023-04-25T07:57:50;18.80;62.00
25732;DHT22;13585;50.864;4.406;2023-04-25T08:00:16;18.90;62.10
25732;DHT22;13585;50.864;4.406;2023-04-25T08:02:41;18.80;62.00
25732;DHT22;13585;50.864;4.406;2023-04-25T08:05:07;18.90;62.00
25732;DHT22;13585;50.864;4.406;2023-04-25T08:07:37;18.90;62.00
25732;DHT22;13585;50.864;4.406;2023-04-25T08:10:05;18.80;61.90
25732;DHT22;13585;50.864;4.406;2023-04-25T08:12:31;18.80;62.00
25732;DHT22;13585;50.864;4.406;2023-04-25T08:14:58;18.80;62.00
25732;DHT22;13585;50.864;4.406;2023-04-25T08:17:23;18.90;62.00
25732;DHT22;13585;50.864;4.406;2023-04-25T08:19:49;18.80;62.70
25732;DHT22;13585;50.864;4.406;2023-04-25T08:22:15;18.80;62.00
25732;DHT22;13585;50.864;4.406;2023-04-25T08:24:41;18.80;62.00
25732;DHT22;13585;50.864;4.406;2023-04-25T08:27:07;18.90;62.00
25732;DHT22;13585;50.864;4.406;2023-04-25T08:29:33;18.90;62.00
25732;DHT22;13585;50.864;4.406;2023-04-25T08:32:00;18.80;62.00
25732;DHT22;13585;50.864;4.406;2023-04-25T08:34:26;18.80;62.00
25732;DHT22;13585;50.864;4.406;2023-04-25T08:36:51;18.90;62.10
25732;DHT22;13585;50.864;4.406;2023-04-25T08:39:17;18.80;62.00
25732;DHT22;13585;50.864;4.406;2023-04-25T08:41:43;18.80;62.00
25732;DHT22;13585;50.864;4.406;2023-04-25T08:44:10;18.90;62.10
25732;DHT22;13585;50.864;4.406;2023-04-25T08:46:38;18.80;62.00
25732;DHT22;13585;50.864;4.406;2023-04-25T08:49:04;18.90;62.10
25732;DHT22;13585;50.864;4.406;2023-04-25T08:51:31;18.90;62.10
25732;DHT22;13585;50.864;4.406;2023-04-25T08:54:10;18.90;62.10
25732;DHT22;13585;50.864;4.406;2023-04-25T08:56:38;18.80;62.10
25732;DHT22;13585;50.864;4.406;2023-04-25T08:59:06;18.80;62.00
25732;DHT22;13585;50.864;4.406;2023-04-25T09:01:34;18.80;62.00
25732;DHT22;13585;50.864;4.406;2023-04-25T09:04:01;18.70;61.90
25732;DHT22;13585;50.864;4.406;2023-04-25T09:06:28;18.90;62.10
25732;DHT22;13585;50.864;4.406;2023-04-25T09:08:54;18.80;62.00
25732;DHT22;13585;50.864;4.406;2023-04-25T09:11:19;18.80;62.00
25732;DHT22;13585;50.864;4.406;2023-04-25T09:13:45;18.80;62.00
25732;DHT22;13585;50.864;4.406;2023-04-25T09:16:11;18.80;62.00
25732;DHT22;13585;50.864;4.406;2023-04-25T09:18:37;18.80;62.00
25732;DHT22;13585;50.864;4.406;2023-04-25T09:21:11;18.80;62.00
25732;DHT22;13585;50.864;4.406;2023-04-25T09:23:47;18.80;62.00
25732;DHT22;13585;50.864;4.406;2023-04-25T09:26:18;18.80;62.00
25732;DHT22;13585;50.864;4.406;2023-04-25T09:28:44;18.80;61.90
25732;DHT22;13585;50.864;4.406;2023-04-25T09:31:11;18.80;61.90
25732;DHT22;13585;50.864;4.406;2023-04-25T09:33:37;18.80;61.80
25732;DHT22;13585;50.864;4.406;2023-04-25T09:36:05;18.80;61.80
25732;DHT22;13585;50.864;4.406;2023-04-25T09:38:39;18.80;61.80
25732;DHT22;13585;50.864;4.406;2023-04-25T09:41:07;18.80;61.70
25732;DHT22;13585;50.864;4.406;2023-04-25T09:43:33;18.80;61.80
25732;DHT22;13585;50.864;4.406;2023-04-25T09:46:00;18.80;61.70
25732;DHT22;13585;50.864;4.406;2023-04-25T09:48:27;18.80;61.70
25732;DHT22;13585;50.864;4.406;2023-04-25T09:53:38;18.80;61.70
25732;DHT22;13585;50.864;4.406;2023-04-25T09:56:06;18.80;61.60
25732;DHT22;13585;50.864;4.406;2023-04-25T09:58:32;18.90;61.70
25732;DHT22;13585;50.864;4.406;2023-04-25T10:01:03;18.80;61.60
25732;DHT22;13585;50.864;4.406;2023-04-25T10:03:30;18.80;61.70
25732;DHT22;13585;50.864;4.406;2023-04-25T10:05:59;18.80;61.60
25732;DHT22;13585;50.864;4.406;2023-04-25T10:08:27;18.80;61.60
25732;DHT22;13585;50.864;4.406;2023-04-25T10:10:54;18.80;61.50
25732;DHT22;13585;50.864;4.406;2023-04-25T10:13:20;18.80;61.50
25732;DHT22;13585;50.864;4.406;2023-04-25T10:15:47;18.80;61.50
25732;DHT22;13585;50.864;4.406;2023-04-25T10:18:13;18.80;61.40
25732;DHT22;13585;50.864;4.406;2023-04-25T10:20:39;18.80;61.40
25732;DHT22;13585;50.864;4.406;2023-04-25T10:23:15;18.80;61.30
25732;DHT22;13585;50.864;4.406;2023-04-25T10:25:41;18.80;61.30
25732;DHT22;13585;50.864;4.406;2023-04-25T10:28:07;18.80;61.20
25732;DHT22;13585;50.864;4.406;2023-04-25T10:30:33;18.90;61.30
25732;DHT22;13585;50.864;4.406;2023-04-25T10:32:59;18.90;61.20
25732;DHT22;13585;50.864;4.406;2023-04-25T10:35:27;18.80;61.20
25732;DHT22;13585;50.864;4.406;2023-04-25T10:38:14;18.90;61.20
25732;DHT22;13585;50.864;4.406;2023-04-25T10:40:40;18.80;61.20
25732;DHT22;13585;50.864;4.406;2023-04-25T10:43:34;18.90;61.20
25732;DHT22;13585;50.864;4.406;2023-04-25T10:46:02;18.80;61.20
25732;DHT22;13585;50.864;4.406;2023-04-25T10:48:29;18.90;61.20
25732;DHT22;13585;50.864;4.406;2023-04-25T10:51:08;18.80;61.20
25732;DHT22;13585;50.864;4.406;2023-04-25T10:53:35;18.90;61.40
25732;DHT22;13585;50.864;4.406;2023-04-25T10:56:08;18.90;61.40
25732;DHT22;13585;50.864;4.406;2023-04-25T10:58:34;18.90;61.50
25732;DHT22;13585;50.864;4.406;2023-04-25T11:01:01;18.90;61.50
25732;DHT22;13585;50.864;4.406;2023-04-25T11:03:26;18.90;61.70
25732;DHT22;13585;50.864;4.406;2023-04-25T11:05:52;18.90;61.80
25732;DHT22;13585;50.864;4.406;2023-04-25T11:08:48;18.90;61.90
25732;DHT22;13585;50.864;4.406;2023-04-25T11:11:14;18.90;62.10
25732;DHT22;13585;50.864;4.406;2023-04-25T11:13:40;18.90;62.10
25732;DHT22;13585;50.864;4.406;2023-04-25T11:16:09;18.90;62.40
25732;DHT22;13585;50.864;4.406;2023-04-25T11:18:34;18.90;62.40
25732;DHT22;13585;50.864;4.406;2023-04-25T11:21:00;18.90;62.70
25732;DHT22;13585;50.864;4.406;2023-04-25T11:23:28;18.90;62.80
25732;DHT22;13585;50.864;4.406;2023-04-25T11:25:55;18.90;62.90
25732;DHT22;13585;50.864;4.406;2023-04-25T11:28:22;18.90;62.90
25732;DHT22;13585;50.864;4.406;2023-04-25T11:30:51;19.00;63.20
25732;DHT22;13585;50.864;4.406;2023-04-25T11:33:17;18.90;63.40
25732;DHT22;13585;50.864;4.406;2023-04-25T11:35:43;18.90;63.40
25732;DHT22;13585;50.864;4.406;2023-04-25T11:38:09;19.00;63.50
25732;DHT22;13585;50.864;4.406;2023-04-25T11:40:35;19.00;63.60
25732;DHT22;13585;50.864;4.406;2023-04-25T11:43:01;18.90;63.70
25732;DHT22;13585;50.864;4.406;2023-04-25T11:45:27;19.00;63.70
25732;DHT22;13585;50.864;4.406;2023-04-25T11:47:54;19.00;63.80
25732;DHT22;13585;50.864;4.406;2023-04-25T11:50:20;18.90;63.80
25732;DHT22;13585;50.864;4.406;2023-04-25T11:52:47;19.00;63.80
25732;DHT22;13585;50.864;4.406;2023-04-25T11:55:18;19.00;63.80
25732;DHT22;13585;50.864;4.406;2023-04-25T11:57:45;19.00;63.80
25732;DHT22;13585;50.864;4.406;2023-04-25T12:00:14;19.00;63.80
25732;DHT22;13585;50.864;4.406;2023-04-25T12:02:43;19.00;63.80
25732;DHT22;13585;50.864;4.406;2023-04-25T12:05:12;19.00;63.70
25732;DHT22;13585;50.864;4.406;2023-04-25T12:07:37;19.00;63.70
25732;DHT22;13585;50.864;4.406;2023-04-25T12:10:11;19.00;63.50
25732;DHT22;13585;50.864;4.406;2023-04-25T12:12:38;19.00;63.50
25732;DHT22;13585;50.864;4.406;2023-04-25T12:15:33;19.00;63.20
25732;DHT22;13585;50.864;4.406;2023-04-25T12:17:58;18.90;63.30
25732;DHT22;13585;50.864;4.406;2023-04-25T12:20:27;19.00;63.00
25732;DHT22;13585;50.864;4.406;2023-04-25T12:22:53;19.00;63.00
25732;DHT22;13585;50.864;4.406;2023-04-25T12:25:37;19.00;62.80
25732;DHT22;13585;50.864;4.406;2023-04-25T12:30:54;18.90;62.40
25732;DHT22;13585;50.864;4.406;2023-04-25T12:33:20;18.90;62.30
25732;DHT22;13585;50.864;4.406;2023-04-25T12:35:47;18.90;62.20
25732;DHT22;13585;50.864;4.406;2023-04-25T12:38:27;18.90;62.00
25732;DHT22;13585;50.864;4.406;2023-04-25T12:40:54;18.90;61.90
25732;DHT22;13585;50.864;4.406;2023-04-25T12:43:20;18.90;61.70
25732;DHT22;13585;50.864;4.406;2023-04-25T12:45:54;18.90;61.50
25732;DHT22;13585;50.864;4.406;2023-04-25T12:48:21;18.90;61.40
25732;DHT22;13585;50.864;4.406;2023-04-25T12:50:47;18.90;61.10
25732;DHT22;13585;50.864;4.406;2023-04-25T12:53:17;18.90;60.90
25732;DHT22;13585;50.864;4.406;2023-04-25T12:55:43;18.90;60.60
25732;DHT22;13585;50.864;4.406;2023-04-25T12:58:11;18.90;60.50
25732;DHT22;13585;50.864;4.406;2023-04-25T13:00:36;18.90;60.10
25732;DHT22;13585;50.864;4.406;2023-04-25T13:03:03;18.90;59.90
25732;DHT22;13585;50.864;4.406;2023-04-25T13:05:28;18.90;59.70
25732;DHT22;13585;50.864;4.406;2023-04-25T13:07:55;18.90;59.60
25732;DHT22;13585;50.864;4.406;2023-04-25T13:10:21;18.90;59.50
25732;DHT22;13585;50.864;4.406;2023-04-25T13:12:46;18.90;59.40
25732;DHT22;13585;50.864;4.406;2023-04-25T13:15:12;18.90;59.20
25732;DHT22;13585;50.864;4.406;2023-04-25T13:17:38;18.90;59.10
25732;DHT22;13585;50.864;4.406;2023-04-25T13:20:05;18.90;59.00
25732;DHT22;13585;50.864;4.406;2023-04-25T13:22:38;18.90;58.90
25732;DHT22;13585;50.864;4.406;2023-04-25T13:25:05;18.90;58.70
25732;DHT22;13585;50.864;4.406;2023-04-25T13:27:32;18.90;58.60
25732;DHT22;13585;50.864;4.406;2023-04-25T13:29:59;18.90;58.50
25732;DHT22;13585;50.864;4.406;2023-04-25T13:32:25;18.90;58.30
25732;DHT22;13585;50.864;4.406;2023-04-25T13:34:51;18.90;58.10
25732;DHT22;13585;50.864;4.406;2023-04-25T13:37:17;18.90;58.10
25732;DHT22;13585;50.864;4.406;2023-04-25T13:39:43;18.90;57.90
25732;DHT22;13585;50.864;4.406;2023-04-25T13:42:08;18.90;57.80
25732;DHT22;13585;50.864;4.406;2023-04-25T13:44:34;18.90;57.70
25732;DHT22;13585;50.864;4.406;2023-04-25T13:47:00;18.90;57.60
25732;DHT22;13585;50.864;4.406;2023-04-25T13:49:26;18.90;57.50
25732;DHT22;13585;50.864;4.406;2023-04-25T13:51:51;18.90;57.40
25732;DHT22;13585;50.864;4.406;2023-04-25T13:54:17;18.90;57.40
25732;DHT22;13585;50.864;4.406;2023-04-25T13:56:43;18.90;57.40
25732;DHT22;13585;50.864;4.406;2023-04-25T13:59:08;18.90;57.30
25732;DHT22;13585;50.864;4.406;2023-04-25T14:01:34;18.90;57.30
25732;DHT22;13585;50.864;4.406;2023-04-25T14:04:01;18.90;57.30
25732;DHT22;13585;50.864;4.406;2023-04-25T14:06:27;19.00;57.40
25732;DHT22;13585;50.864;4.406;2023-04-25T14:08:53;18.90;57.40
25732;DHT22;13585;50.864;4.406;2023-04-25T14:11:22;18.90;57.40
25732;DHT22;13585;50.864;4.406;2023-04-25T14:13:48;18.90;57.40
25732;DHT22;13585;50.864;4.406;2023-04-25T14:16:15;18.90;57.50
25732;DHT22;13585;50.864;4.406;2023-04-25T14:18:41;18.90;57.60
25732;DHT22;13585;50.864;4.406;2023-04-25T14:21:07;18.90;57.60
25732;DHT22;13585;50.864;4.406;2023-04-25T14:23:33;19.00;57.70
25732;DHT22;13585;50.864;4.406;2023-04-25T14:25:58;19.00;57.90
25732;DHT22;13585;50.864;4.406;2023-04-25T14:28:24;18.90;57.90
25732;DHT22;13585;50.864;4.406;2023-04-25T14:30:50;18.90;58.00
25732;DHT22;13585;50.864;4.406;2023-04-25T14:33:15;19.00;58.10
25732;DHT22;13585;50.864;4.406;2023-04-25T14:35:41;19.00;58.20
25732;DHT22;13585;50.864;4.406;2023-04-25T14:38:06;19.00;58.40
25732;DHT22;13585;50.864;4.406;2023-04-25T14:40:33;19.00;58.50
25732;DHT22;13585;50.864;4.406;2023-04-25T14:42:58;19.00;58.60
25732;DHT22;13585;50.864;4.406;2023-04-25T14:45:24;19.00;58.70
25732;DHT22;13585;50.864;4.406;2023-04-25T14:47:50;19.00;58.80
25732;DHT22;13585;50.864;4.406;2023-04-25T14:50:15;19.00;59.00
25732;DHT22;13585;50.864;4.406;2023-04-25T14:52:41;19.00;59.00
25732;DHT22;13585;50.864;4.406;2023-04-25T14:55:07;19.10;59.20
25732;DHT22;13585;50.864;4.406;2023-04-25T14:57:34;19.00;59.20
25732;DHT22;13585;50.864;4.406;2023-04-25T15:00:00;19.10;59.30
25732;DHT22;13585;50.864;4.406;2023-04-25T15:02:26;19.10;59.40
25732;DHT22;13585;50.864;4.406;2023-04-25T15:04:53;19.10;59.50
25732;DHT22;13585;50.864;4.406;2023-04-25T15:07:19;19.10;59.60
25732;DHT22;13585;50.864;4.406;2023-04-25T15:09:46;19.10;59.60
25732;DHT22;13585;50.864;4.406;2023-04-25T15:12:13;19.10;59.70
25732;DHT22;13585;50.864;4.406;2023-04-25T15:14:38;19.10;59.80
25732;DHT22;13585;50.864;4.406;2023-04-25T15:17:04;19.10;59.80
25732;DHT22;13585;50.864;4.406;2023-04-25T15:19:30;19.10;59.90
25732;DHT22;13585;50.864;4.406;2023-04-25T15:21:55;19.10;60.00
25732;DHT22;13585;50.864;4.406;2023-04-25T15:24:30;19.10;60.10
25732;DHT22;13585;50.864;4.406;2023-04-25T15:26:56;19.10;60.20
25732;DHT22;13585;50.864;4.406;2023-04-25T15:29:21;19.10;60.20
25732;DHT22;13585;50.864;4.406;2023-04-25T15:31:47;19.10;60.30
25732;DHT22;13585;50.864;4.406;2023-04-25T15:34:13;19.20;60.50